Time;durP1;ratioP1;P1;durP2;ratioP2;P2;SDS_P1;SDS_P2;PMS_P1;PMS_P2;Temp;Humidity;BMP_temperature;BMP_pressure;BME280_temperature;BME280_humidity;BME280_pressure;Samples;Min_cycle;Max_cycle;Signal;HPM_P1;HPM_P2
2024/04/22 00:00:32;;;;;;;7.90;1.92;;;;;;;16.30;100.00;98747.91;5320754;26;20000;-72
2024/04/22 00:02:58;;;;;;;2.88;1.67;;;;;;;16.28;100.00;98741.91;5291903;26;20316;-72
2024/04/22 00:05:25;;;;;;;7.05;1.65;;;;;;;16.28;100.00;98736.56;5291455;26;20071;-72
2024/04/22 00:07:52;;;;;;;5.22;1.60;;;;;;;16.21;100.00;98745.69;5320340;26;19996;-72
2024/04/22 00:10:18;;;;;;;3.80;1.50;;;;;;;16.22;100.00;98734.75;5319815;26;20003;-72
2024/04/22 00:12:44;;;;;;;8.05;2.50;;;;;;;16.14;100.00;98734.19;5318865;26;20092;-71
2024/04/22 00:15:11;;;;;;;6.55;1.90;;;;;;;16.19;100.00;98735.19;5305856;27;20014;-73
2024/04/22 00:17:38;;;;;;;5.13;1.60;;;;;;;16.19;100.00;98735.19;5249462;27;20360;-72
2024/04/22 00:20:07;;;;;;;5.15;1.95;;;;;;;16.21;100.00;98733.13;5222158;27;20092;-72
2024/04/22 00:22:34;;;;;;;4.80;1.60;;;;;;;16.30;100.00;98725.63;5221555;27;20009;-72
2024/04/22 00:25:00;;;;;;;7.40;2.10;;;;;;;16.14;100.00;98724.31;5249393;27;20313;-72
2024/04/22 00:27:26;;;;;;;6.00;2.10;;;;;;;16.13;100.00;98722.66;5224274;27;19997;-72
2024/04/22 00:29:52;;;;;;;7.43;1.90;;;;;;;16.13;100.00;98721.84;5226235;27;20001;-72
2024/04/22 00:32:19;;;;;;;6.15;1.75;;;;;;;16.07;100.00;98720.84;5228247;27;20007;-72
2024/04/22 00:34:48;;;;;;;9.93;1.77;;;;;;;16.16;100.00;98710.69;5228065;27;20006;-72
2024/04/22 00:37:14;;;;;;;4.75;2.13;;;;;;;16.10;100.00;98715.03;5253917;27;20001;-73
2024/04/22 00:39:40;;;;;;;6.90;2.38;;;;;;;16.09;100.00;98709.91;5226355;27;20012;-72
2024/04/22 00:42:07;;;;;;;7.57;1.88;;;;;;;15.98;100.00;98713.25;5226321;27;20372;-72
2024/04/22 00:44:33;;;;;;;11.50;2.53;;;;;;;15.92;100.00;98716.81;5226183;27;20008;-73
2024/04/22 00:47:00;;;;;;;5.65;1.90;;;;;;;15.98;100.00;98722.13;5283253;26;20006;-72
2024/04/22 00:49:27;;;;;;;9.48;2.22;;;;;;;16.02;100.00;98720.66;5322725;26;20000;-72
2024/04/22 00:51:53;;;;;;;8.07;2.17;;;;;;;15.98;100.00;98713.25;5292433;26;20064;-71
2024/04/22 00:54:20;;;;;;;5.75;2.13;;;;;;;16.01;100.00;98719.00;5291970;26;20001;-72
2024/04/22 00:56:46;;;;;;;11.60;2.25;;;;;;;15.85;100.00;98721.38;5264128;26;19996;-72
2024/04/22 00:59:13;;;;;;;10.10;2.10;;;;;;;15.76;100.00;98694.00;5292993;26;20084;-72
2024/04/22 01:01:41;;;;;;;5.43;2.08;;;;;;;15.79;100.00;98690.09;5320906;26;19996;-72
2024/04/22 01:04:07;;;;;;;10.85;2.28;;;;;;;15.79;100.00;98698.94;5321031;26;20024;-71
2024/04/22 01:06:33;;;;;;;3.47;2.15;;;;;;;15.80;100.00;98702.44;5292086;26;20004;-72
2024/04/22 01:08:59;;;;;;;10.05;2.10;;;;;;;15.79;100.00;98692.78;5264171;26;19996;-72
2024/04/22 01:11:24;;;;;;;6.18;2.28;;;;;;;15.75;100.00;98699.59;5292300;26;20001;-72
2024/04/22 01:13:50;;;;;;;8.95;2.53;;;;;;;15.54;100.00;98697.22;5320270;26;20000;-71
2024/04/22 01:16:16;;;;;;;7.32;2.17;;;;;;;15.64;100.00;98701.06;5292019;26;20003;-72
2024/04/22 01:18:42;;;;;;;7.90;2.03;;;;;;;15.54;100.00;98703.41;5292575;26;19996;-71
2024/04/22 01:21:08;;;;;;;10.00;2.22;;;;;;;15.60;100.00;98688.34;5291976;26;19997;-71
2024/04/22 01:23:34;;;;;;;6.93;2.00;;;;;;;15.45;100.00;98688.63;5313700;26;19997;-71
2024/04/22 01:26:02;;;;;;;8.82;2.92;;;;;;;15.57;100.00;98684.25;5379505;26;20012;-71
2024/04/22 01:28:28;;;;;;;8.70;2.08;;;;;;;15.38;100.00;98677.09;5379809;26;20004;-74
2024/04/22 01:30:54;;;;;;;4.43;1.67;;;;;;;15.50;100.00;98679.94;5380224;26;20415;-71
2024/04/22 01:33:21;;;;;;;4.10;1.75;;;;;;;15.44;100.00;98681.59;5293514;26;20000;-71
2024/04/22 01:35:48;;;;;;;8.02;2.67;;;;;;;15.51;100.00;98694.97;5350673;26;20000;-72
2024/04/22 01:38:14;;;;;;;5.22;1.70;;;;;;;15.42;100.00;98680.19;5293403;26;20020;-72
2024/04/22 01:40:40;;;;;;;7.18;2.00;;;;;;;15.45;100.00;98691.28;5320413;26;20011;-72
2024/04/22 01:43:05;;;;;;;4.57;2.03;;;;;;;15.36;100.00;98676.44;5293196;26;20541;-71
2024/04/22 01:45:33;;;;;;;4.93;2.30;;;;;;;15.44;100.00;98673.56;5293064;26;20074;-71
2024/04/22 01:48:00;;;;;;;8.75;2.65;;;;;;;15.41;100.00;98678.56;5321838;26;20004;-71
2024/04/22 01:50:29;;;;;;;5.70;2.25;;;;;;;15.50;100.00;98669.25;5323189;26;20027;-71
2024/04/22 01:52:56;;;;;;;5.70;2.30;;;;;;;15.43;100.00;98658.56;5320068;26;20038;-72
2024/04/22 01:55:23;;;;;;;9.02;2.80;;;;;;;15.36;100.00;98668.44;5349066;26;20435;-72
2024/04/22 01:57:50;;;;;;;5.68;1.77;;;;;;;15.48;100.00;98674.81;5349470;26;20012;-71
2024/04/22 02:00:16;;;;;;;7.07;2.50;;;;;;;15.43;100.00;98669.28;5291244;26;20016;-72
2024/04/22 02:02:42;;;;;;;7.85;2.30;;;;;;;15.41;100.00;98663.31;5349645;26;20007;-72
2024/04/22 02:05:07;;;;;;;5.45;2.35;;;;;;;15.41;100.00;98657.16;5320260;26;20015;-72
2024/04/22 02:07:33;;;;;;;15.98;3.65;;;;;;;15.37;100.00;98645.19;5320037;26;20426;-72
2024/04/22 02:09:59;;;;;;;5.40;2.40;;;;;;;15.36;100.00;98649.69;5321361;26;20000;-72
2024/04/22 02:12:26;;;;;;;10.07;2.28;;;;;;;15.36;100.00;98655.03;5321982;26;20419;-72
2024/04/22 02:14:53;;;;;;;6.47;2.20;;;;;;;15.35;100.00;98641.88;5350736;26;20004;-71
2024/04/22 02:17:19;;;;;;;6.00;2.22;;;;;;;15.29;100.00;98654.25;5321664;26;20015;-71
2024/04/22 02:19:46;;;;;;;11.30;3.20;;;;;;;15.17;100.00;98627.38;5293216;26;20011;-73
2024/04/22 02:22:12;;;;;;;10.80;2.67;;;;;;;15.34;100.00;98642.94;5321470;26;20003;-71
2024/04/22 02:24:38;;;;;;;7.38;2.65;;;;;;;15.21;100.00;98617.88;5351737;26;20062;-71
2024/04/22 02:27:04;;;;;;;5.97;2.20;;;;;;;15.39;100.00;98625.22;5322796;26;20000;-72
2024/04/22 02:29:30;;;;;;;7.10;2.00;;;;;;;15.44;100.00;98625.41;5351169;26;20011;-71
2024/04/22 02:31:56;;;;;;;9.25;2.25;;;;;;;15.36;100.00;98628.28;5294187;26;19996;-71
2024/04/22 02:34:23;;;;;;;5.72;2.60;;;;;;;15.40;100.00;98621.53;5321305;26;20070;-71
2024/04/22 02:36:50;;;;;;;5.75;2.25;;;;;;;15.53;100.00;98616.09;5349918;26;20000;-72
2024/04/22 02:39:18;;;;;;;7.60;2.28;;;;;;;15.56;100.00;98618.34;5351167;26;20075;-72
2024/04/22 02:41:44;;;;;;;9.60;2.42;;;;;;;15.58;100.00;98613.59;5320912;26;20000;-71
2024/04/22 02:44:09;;;;;;;4.47;2.30;;;;;;;15.60;100.00;98624.94;5350004;26;20000;-72
2024/04/22 02:46:35;;;;;;;6.20;2.28;;;;;;;15.67;100.00;98622.22;5292168;26;20011;-71
2024/04/22 02:49:01;;;;;;;5.68;2.50;;;;;;;15.79;100.00;98623.97;5319673;26;20028;-73
2024/04/22 02:51:27;;;;;;;7.35;2.45;;;;;;;15.77;100.00;98623.41;5321815;26;20012;-72
2024/04/22 02:53:53;;;;;;;6.55;2.65;;;;;;;15.82;100.00;98633.44;5321280;26;20000;-72
2024/04/22 02:56:21;;;;;;;6.05;2.40;;;;;;;15.84;100.00;98632.19;5350207;26;20004;-72
2024/04/22 02:58:47;;;;;;;9.38;2.58;;;;;;;15.69;100.00;98630.84;5321164;26;20096;-72
2024/04/22 03:01:13;;;;;;;9.55;2.20;;;;;;;15.74;100.00;98615.78;5349584;26;20004;-71
2024/04/22 03:03:39;;;;;;;7.28;2.50;;;;;;;15.72;100.00;98614.34;5321348;26;20107;-71
2024/04/22 03:06:05;;;;;;;7.05;2.30;;;;;;;15.86;100.00;98600.69;5378483;26;20010;-72
2024/04/22 03:08:31;;;;;;;5.35;2.13;;;;;;;15.98;100.00;98612.31;5349748;26;19997;-72
2024/04/22 03:10:58;;;;;;;4.80;2.35;;;;;;;16.05;100.00;98621.13;5312304;26;20016;-72
2024/04/22 03:13:24;;;;;;;7.25;2.80;;;;;;;16.19;100.00;98622.66;5260006;26;20008;-71
2024/04/22 03:15:50;;;;;;;7.15;2.50;;;;;;;16.18;100.00;98629.06;5287917;26;20025;-72
2024/04/22 03:18:16;;;;;;;5.15;2.80;;;;;;;16.22;100.00;98608.81;5286473;26;20017;-72
2024/04/22 03:20:44;;;;;;;8.98;2.55;;;;;;;16.16;100.00;98596.31;5293278;26;20403;-71
2024/04/22 03:23:10;;;;;;;3.92;2.03;;;;;;;16.35;100.00;98610.59;5343308;26;20012;-71
2024/04/22 03:25:36;;;;;;;10.40;3.38;;;;;;;16.18;100.00;98610.31;5290441;26;20419;-73
2024/04/22 03:28:02;;;;;;;8.13;2.88;;;;;;;16.23;100.00;98604.31;5311677;26;20000;-74
2024/04/22 03:30:28;;;;;;;5.15;2.28;;;;;;;16.26;100.00;98612.72;5305481;26;20089;-74
2024/04/22 03:32:54;;;;;;;7.78;3.22;;;;;;;16.28;100.00;98623.22;5318422;26;20004;-73
2024/04/22 03:35:20;;;;;;;6.88;2.70;;;;;;;16.28;100.00;98599.13;5305628;26;20001;-73
2024/04/22 03:37:46;;;;;;;7.10;2.75;;;;;;;16.37;100.00;98614.69;5300919;26;20453;-75
2024/04/22 03:40:12;;;;;;;5.95;2.45;;;;;;;16.33;100.00;98613.47;5317227;26;20142;-74
2024/04/22 03:42:38;;;;;;;7.78;2.55;;;;;;;16.43;100.00;98621.84;5278362;26;20578;-73
2024/04/22 03:45:04;;;;;;;6.72;2.38;;;;;;;16.52;100.00;98607.16;5286503;26;20041;-74
2024/04/22 05:14:48;;;;;;;8.85;2.30;;;;;;;18.67;100.00;98626.78;5340706;26;20006;-72
2024/04/22 05:17:14;;;;;;;5.32;2.20;;;;;;;18.83;100.00;98632.28;5317311;26;20097;-72
2024/04/22 05:19:40;;;;;;;7.60;2.50;;;;;;;18.69;100.00;98619.31;5289783;26;20440;-72
2024/04/22 05:22:06;;;;;;;5.00;2.40;;;;;;;18.94;100.00;98617.19;5291048;26;20012;-72
2024/04/22 05:24:32;;;;;;;3.90;2.20;;;;;;;19.04;100.00;98618.22;5318178;26;20001;-72
2024/04/22 05:26:58;;;;;;;7.43;2.20;;;;;;;19.30;100.00;98616.91;5260341;26;20004;-72
2024/04/22 05:29:24;;;;;;;10.70;2.63;;;;;;;19.39;100.00;98605.53;5316730;26;20079;-72
2024/04/22 05:31:50;;;;;;;4.22;2.00;;;;;;;19.32;100.00;98626.41;5287843;26;20045;-71
2024/04/22 05:37:02;;;;;;;8.50;3.00;;;;;;;19.08;100.00;98623.97;5321794;26;20001;-72
2024/04/22 05:39:28;;;;;;;4.50;2.10;;;;;;;19.18;100.00;98603.47;5287826;26;20108;-72
2024/04/22 05:41:54;;;;;;;3.85;2.00;;;;;;;19.35;100.00;98630.47;5260832;26;20032;-74
2024/04/22 05:44:21;;;;;;;4.20;2.17;;;;;;;19.42;100.00;98612.34;5264903;26;20016;-74
2024/04/22 05:46:47;;;;;;;7.85;2.47;;;;;;;19.34;100.00;98626.16;5261065;26;20008;-71
2024/04/22 05:49:13;;;;;;;8.25;2.60;;;;;;;19.12;100.00;98609.78;5317040;26;20482;-70
2024/04/22 05:51:39;;;;;;;8.10;2.40;;;;;;;18.88;100.00;98616.25;5261704;26;20041;-72
2024/04/22 05:54:06;;;;;;;7.25;2.10;;;;;;;18.77;100.00;98606.34;5261522;26;20005;-72
2024/04/22 05:56:32;;;;;;;6.72;2.72;;;;;;;18.69;100.00;98613.94;5259520;26;20012;-71
2024/04/22 05:58:58;;;;;;;6.22;2.33;;;;;;;18.73;100.00;98609.72;5315936;26;20001;-72
2024/04/22 06:01:31;;;;;;;9.95;2.40;;;;;;;18.88;100.00;98602.78;5245711;27;20007;-73
2024/04/22 06:03:56;;;;;;;6.28;2.80;;;;;;;18.97;100.00;98614.84;5218641;27;20429;-72
2024/04/22 06:06:23;;;;;;;7.13;2.88;;;;;;;19.15;100.00;98616.56;5190992;27;20457;-73
2024/04/22 06:08:49;;;;;;;7.32;2.78;;;;;;;19.31;100.00;98611.28;5218924;27;20002;-72
2024/04/22 06:11:15;;;;;;;6.50;2.53;;;;;;;19.37;100.00;98626.47;5218645;27;20002;-72
2024/04/22 06:13:41;;;;;;;5.85;2.10;;;;;;;19.91;100.00;98617.84;5230116;27;20006;-74
2024/04/22 06:16:14;;;;;;;11.57;2.58;;;;;;;20.34;100.00;98622.69;5252501;27;19998;-73
2024/04/22 06:18:45;;;;;;;3.00;1.90;;;;;;;20.69;100.00;98617.00;5254441;27;20017;-72
2024/04/22 06:21:16;;;;;;;5.32;1.80;;;;;;;21.01;100.00;98612.63;5252063;27;19998;-73
2024/04/22 06:23:44;;;;;;;5.32;2.00;;;;;;;21.40;100.00;98625.03;5238789;27;20398;-73
2024/04/22 06:26:13;;;;;;;5.63;1.80;;;;;;;21.59;100.00;98635.25;5213252;27;20018;-73
2024/04/22 06:28:39;;;;;;;4.65;1.95;;;;;;;21.85;100.00;98649.09;5186146;27;19999;-72
2024/04/22 06:31:05;;;;;;;7.25;2.50;;;;;;;21.55;100.00;98630.63;5179676;27;20193;-73
2024/04/22 06:33:36;;;;;;;6.43;2.40;;;;;;;21.62;100.00;98650.13;5183849;27;20014;-72
2024/04/22 06:36:03;;;;;;;6.00;2.00;;;;;;;21.60;100.00;98645.00;5212218;27;20118;-72
2024/04/22 06:38:38;;;;;;;18.90;2.65;;;;;;;21.26;100.00;98669.69;5185659;27;19995;-71
2024/04/22 06:41:04;;;;;;;8.30;2.47;;;;;;;20.90;100.00;98651.31;5185422;27;19999;-71
2024/04/22 06:43:30;;;;;;;11.20;2.83;;;;;;;20.78;100.00;98654.13;5125832;27;20011;-72
2024/04/22 06:45:57;;;;;;;5.30;2.08;;;;;;;20.93;100.00;98648.94;5152394;27;20023;-72
2024/04/22 06:48:24;;;;;;;9.07;2.60;;;;;;;21.16;100.00;98650.63;5126486;27;20018;-72
2024/04/22 06:50:51;;;;;;;6.22;2.08;;;;;;;21.79;100.00;98650.13;5152719;27;20079;-72
2024/04/22 06:53:19;;;;;;;9.65;2.88;;;;;;;21.98;100.00;98660.31;5121894;27;20004;-72
2024/04/22 06:55:47;;;;;;;4.70;2.15;;;;;;;21.94;100.00;98678.09;5175055;27;20039;-72
2024/04/22 06:58:14;;;;;;;8.38;2.40;;;;;;;21.56;100.00;98659.25;5139432;27;20001;-74
2024/04/22 07:00:40;;;;;;;13.10;2.67;;;;;;;21.38;100.00;98671.22;5115036;27;20443;-72
2024/04/22 07:03:11;;;;;;;12.75;2.58;;;;;;;21.07;100.00;98660.22;5082387;27;20022;-72
2024/04/22 07:05:37;;;;;;;5.07;1.88;;;;;;;20.92;100.00;98650.03;5104509;27;20007;-72
2024/04/22 07:08:03;;;;;;;5.20;2.53;;;;;;;20.81;100.00;98660.91;5104583;27;20012;-72
2024/04/22 07:10:29;;;;;;;8.43;2.05;;;;;;;20.95;100.00;98649.56;5104489;27;20013;-72
2024/04/22 07:12:55;;;;;;;6.40;1.95;;;;;;;21.16;100.00;98666.84;5105062;27;20003;-72
2024/04/22 07:15:21;;;;;;;8.20;2.15;;;;;;;21.06;100.00;98681.03;5131062;27;20029;-72
2024/04/22 07:17:47;;;;;;;4.95;1.90;;;;;;;21.03;100.00;98664.50;5141288;27;20001;-72
2024/04/22 07:20:14;;;;;;;6.47;2.00;;;;;;;21.42;100.00;98668.81;5088613;27;20001;-72
2024/04/22 07:22:42;;;;;;;5.07;2.00;;;;;;;21.56;100.00;98673.59;5114812;27;20001;-72
2024/04/22 07:25:08;;;;;;;6.88;2.10;;;;;;;22.05;100.00;98665.53;5088500;27;20005;-72
2024/04/22 07:27:34;;;;;;;9.25;2.17;;;;;;;22.20;100.00;98674.63;5088291;27;20013;-73
2024/04/22 07:30:03;;;;;;;16.52;2.88;;;;;;;22.72;100.00;98664.81;5131147;27;19998;-72
2024/04/22 07:32:35;;;;;;;7.15;2.03;;;;;;;23.56;100.00;98675.63;5220922;27;20002;-73
2024/04/22 07:35:02;;;;;;;6.75;1.75;;;;;;;23.43;100.00;98681.53;5276009;26;19996;-73
2024/04/22 07:37:36;;;;;;;4.93;1.70;;;;;;;22.84;100.00;98665.44;5259105;26;20479;-73
2024/04/22 07:40:04;;;;;;;5.63;2.20;;;;;;;22.34;100.00;98673.09;5257145;26;20001;-72
2024/04/22 07:42:31;;;;;;;5.97;1.70;;;;;;;21.80;100.00;98667.97;5284812;26;20012;-72
2024/04/22 07:44:56;;;;;;;3.17;1.70;;;;;;;22.52;100.00;98688.19;5257221;26;20043;-72
2024/04/22 07:47:24;;;;;;;4.68;1.70;;;;;;;23.48;97.08;98678.88;5273608;27;19999;-73
2024/04/22 07:49:50;;;;;;;5.88;2.25;;;;;;;23.28;90.08;98696.63;5190484;27;20013;-72
2024/04/22 07:52:16;;;;;;;5.47;1.58;;;;;;;22.76;90.71;98695.72;5218038;27;20010;-73
2024/04/22 07:54:42;;;;;;;6.30;1.90;;;;;;;21.93;94.78;98700.81;5245893;27;19999;-72
2024/04/22 07:57:09;;;;;;;7.30;2.20;;;;;;;21.65;98.23;98703.69;5217919;27;20317;-72
2024/04/22 07:59:37;;;;;;;6.38;3.22;;;;;;;22.69;91.21;98726.78;5223154;27;20021;-72
2024/04/22 08:02:05;;;;;;;2.75;1.73;;;;;;;24.16;80.42;98708.41;5222928;27;20034;-72
2024/04/22 08:04:33;;;;;;;5.63;3.13;;;;;;;25.90;62.38;98703.94;5184335;27;20179;-72
2024/04/22 08:07:04;;;;;;;6.60;1.30;;;;;;;27.21;52.29;98695.69;5152276;27;20023;-72
2024/04/22 08:09:30;;;;;;;7.38;3.25;;;;;;;26.81;48.51;98717.84;5126282;27;20027;-72
2024/04/22 08:11:57;;;;;;;5.35;3.28;;;;;;;27.83;45.34;98702.94;5099100;27;20019;-73
2024/04/22 08:14:25;;;;;;;3.70;1.48;;;;;;;28.77;41.88;98701.91;5099128;27;20016;-72
2024/04/22 08:16:50;;;;;;;9.82;2.05;;;;;;;26.75;42.54;98739.97;5124985;27;20011;-73
2024/04/22 08:19:16;;;;;;;7.00;1.67;;;;;;;25.48;48.49;98716.34;5126574;27;19999;-72
2024/04/22 08:21:45;;;;;;;2.63;1.52;;;;;;;24.08;52.73;98749.66;5160150;27;20331;-72
2024/04/22 08:24:11;;;;;;;5.82;1.60;;;;;;;23.37;60.99;98723.25;5187647;27;20023;-72
2024/04/22 08:26:37;;;;;;;8.23;4.32;;;;;;;24.64;62.48;98718.81;5212552;27;20075;-72
2024/04/22 08:29:03;;;;;;;5.88;1.90;;;;;;;25.42;55.58;98734.56;5131342;27;19999;-72
2024/04/22 08:31:31;;;;;;;4.47;1.38;;;;;;;25.50;54.71;98757.66;5157411;27;20009;-72
2024/04/22 08:33:58;;;;;;;6.18;1.98;;;;;;;23.37;60.11;98761.19;5157653;27;20003;-72
2024/04/22 08:36:27;;;;;;;5.93;1.67;;;;;;;22.40;66.43;98752.47;5184200;27;20009;-72
2024/04/22 08:38:53;;;;;;;5.63;1.40;;;;;;;22.24;70.24;98775.81;5297670;27;20456;-73
2024/04/22 08:41:21;;;;;;;9.23;5.18;;;;;;;22.95;69.19;98834.25;5223090;27;20009;-74
2024/04/22 08:43:49;;;;;;;14.18;4.68;;;;;;;24.36;60.40;98774.41;5251032;27;19997;-72
2024/04/22 08:46:17;;;;;;;5.63;3.92;;;;;;;25.32;51.96;98788.13;5222709;27;20034;-72
2024/04/22 08:48:44;;;;;;;10.73;4.25;;;;;;;26.91;45.13;98782.38;5225652;27;20006;-73
2024/04/22 08:51:17;;;;;;;3.80;1.35;;;;;;;26.17;43.89;98783.31;5229576;27;20008;-72
2024/04/22 08:53:53;;;;;;;5.18;4.80;;;;;;;25.89;43.19;98832.91;5235673;26;20053;-72
2024/04/22 08:56:24;;;;;;;3.97;1.30;;;;;;;24.19;45.62;98873.41;5317710;26;20009;-72
2024/04/22 08:58:51;;;;;;;7.25;4.95;;;;;;;24.55;44.71;98813.56;5316894;26;20423;-73
2024/04/22 09:01:18;;;;;;;8.23;5.50;;;;;;;26.08;39.93;98841.31;5317430;26;20428;-72
2024/04/22 09:03:47;;;;;;;6.03;4.28;;;;;;;26.78;37.67;98835.59;5288837;26;20001;-72
2024/04/22 09:06:16;;;;;;;5.32;4.38;;;;;;;26.35;36.74;98804.44;5317364;26;20001;-72
2024/04/22 09:08:44;;;;;;;6.13;1.20;;;;;;;26.19;36.43;98810.25;5280996;27;19998;-72
2024/04/22 09:11:17;;;;;;;5.65;2.63;;;;;;;24.34;38.87;98817.28;5252951;27;20009;-72
2024/04/22 09:13:44;;;;;;;10.40;1.63;;;;;;;23.80;39.18;98878.28;5225599;27;20484;-72
2024/04/22 09:16:16;;;;;;;7.50;1.90;;;;;;;22.88;41.53;98836.34;5225442;27;19998;-72
2024/04/22 09:18:42;;;;;;;1.13;1.02;;;;;;;22.46;43.18;98848.84;5281947;27;20490;-71
2024/04/22 09:21:11;;;;;;;3.58;1.50;;;;;;;21.73;44.00;98830.28;5199542;27;20001;-71
2024/04/22 09:23:38;;;;;;;2.17;1.20;;;;;;;21.52;45.91;98853.50;5255187;27;20002;-71
2024/04/22 09:26:09;;;;;;;6.40;1.25;;;;;;;20.60;48.41;98824.38;5255483;27;20004;-72
2024/04/22 09:28:36;;;;;;;2.92;0.85;;;;;;;19.38;53.83;98848.94;5282663;27;20333;-71
2024/04/22 09:31:03;;;;;;;3.88;1.10;;;;;;;18.35;63.44;98844.03;5226580;27;20013;-72
2024/04/22 09:33:33;;;;;;;6.10;1.10;;;;;;;17.75;70.85;98894.13;5255074;27;19998;-72
2024/04/22 09:35:59;;;;;;;3.97;1.20;;;;;;;17.39;77.90;98858.31;5283066;27;19997;-71
2024/04/22 09:38:25;;;;;;;3.63;0.93;;;;;;;17.27;82.85;98876.13;5226326;27;19997;-71
2024/04/22 09:40:54;;;;;;;2.20;0.80;;;;;;;17.35;86.21;98841.81;5159963;27;20391;-72
2024/04/22 09:43:21;;;;;;;3.70;1.10;;;;;;;17.64;86.36;98846.50;5186566;27;20007;-72
2024/04/22 09:45:51;;;;;;;4.63;1.20;;;;;;;19.62;72.64;98887.50;5186407;27;20007;-71
2024/04/22 09:48:20;;;;;;;3.50;0.90;;;;;;;19.49;63.89;98863.47;5159136;27;19999;-71
2024/04/22 09:50:48;;;;;;;4.82;4.43;;;;;;;20.20;61.11;98876.69;5186394;27;19999;-71
2024/04/22 09:53:17;;;;;;;1.48;0.80;;;;;;;20.29;57.38;98881.47;5187121;27;20051;-71
2024/04/22 09:55:45;;;;;;;2.63;0.80;;;;;;;20.41;58.14;98874.16;5186107;27;20055;-72
2024/04/22 09:58:12;;;;;;;4.03;1.00;;;;;;;19.73;59.70;98865.94;5159121;27;20023;-71
2024/04/22 10:00:38;;;;;;;0.95;0.85;;;;;;;19.49;60.57;98893.91;5185980;27;19999;-71
2024/04/22 10:03:04;;;;;;;1.98;0.70;;;;;;;19.10;63.03;98883.75;5186462;27;19999;-71
2024/04/22 10:05:31;;;;;;;2.88;0.90;;;;;;;18.58;68.41;98880.97;5213939;27;20359;-71
2024/04/22 10:07:58;;;;;;;4.28;1.10;;;;;;;18.33;73.11;98878.38;5186072;27;20524;-71
2024/04/22 10:10:28;;;;;;;3.95;0.80;;;;;;;18.44;73.92;98891.09;5159422;27;20014;-73
2024/04/22 10:12:54;;;;;;;1.25;0.73;;;;;;;17.97;76.40;98889.16;5214664;27;20031;-73
2024/04/22 10:15:20;;;;;;;2.05;0.90;;;;;;;17.71;79.26;98884.84;5191611;27;20077;-71
2024/04/22 10:17:46;;;;;;;3.50;0.85;;;;;;;17.56;80.86;98889.75;5191595;27;20094;-70
2024/04/22 10:20:14;;;;;;;3.20;0.95;;;;;;;17.46;84.50;98888.63;5164659;27;20030;-71
2024/04/22 10:22:43;;;;;;;3.53;1.08;;;;;;;17.39;84.10;98903.94;5191427;27;20081;-72
2024/04/22 10:25:18;;;;;;;9.67;1.30;;;;;;;17.12;86.90;98913.22;5247253;27;19998;-70
2024/04/22 10:27:48;;;;;;;4.55;1.27;;;;;;;16.81;91.12;98900.63;5219362;27;20057;-72
2024/04/22 10:30:15;;;;;;;2.90;1.05;;;;;;;16.64;93.78;98920.91;5219871;27;20026;-72
2024/04/22 10:32:43;;;;;;;3.35;1.10;;;;;;;16.59;95.82;98920.75;5180368;27;20142;-71
2024/04/22 10:35:09;;;;;;;7.75;1.15;;;;;;;16.40;95.90;98930.50;5153227;27;19999;-72
2024/04/22 10:37:35;;;;;;;5.25;1.10;;;;;;;16.32;97.81;98937.94;5126646;27;20499;-71
2024/04/22 10:40:02;;;;;;;3.83;1.27;;;;;;;16.17;99.41;98910.59;5182131;27;20079;-71
2024/04/22 10:42:31;;;;;;;2.22;1.00;;;;;;;16.20;99.93;98937.78;5180316;27;20011;-71
2024/04/22 10:44:57;;;;;;;2.10;0.98;;;;;;;16.29;100.00;98943.72;5176399;27;20000;-71
2024/04/22 10:47:23;;;;;;;6.63;1.40;;;;;;;16.08;100.00;98960.88;5153570;27;20059;-71
2024/04/22 10:49:49;;;;;;;3.85;1.33;;;;;;;15.97;100.00;98942.78;5207670;27;20111;-70
2024/04/22 10:52:15;;;;;;;4.35;1.33;;;;;;;15.94;100.00;98951.25;5153343;27;20051;-71
2024/04/22 10:54:42;;;;;;;6.18;1.33;;;;;;;15.73;100.00;98943.41;5153259;27;20000;-71
2024/04/22 10:57:08;;;;;;;10.02;1.25;;;;;;;15.67;100.00;98954.97;5154817;27;20011;-71
2024/04/22 10:59:34;;;;;;;2.10;1.20;;;;;;;15.88;100.00;98956.59;5146947;27;20440;-71
2024/04/22 11:02:00;;;;;;;3.92;1.20;;;;;;;15.84;100.00;98966.88;5177451;27;20073;-71
2024/04/22 11:04:26;;;;;;;1.20;0.95;;;;;;;16.08;100.00;98962.75;5153790;27;19999;-71
2024/04/22 11:06:55;;;;;;;3.95;1.00;;;;;;;16.03;100.00;98958.00;5218389;27;20069;-71
2024/04/22 11:09:24;;;;;;;8.43;1.00;;;;;;;15.89;99.82;98976.97;5217863;27;20011;-71
2024/04/22 11:11:53;;;;;;;5.78;1.60;;;;;;;16.01;98.02;98984.19;5245559;27;20003;-71
2024/04/22 11:14:19;;;;;;;2.15;0.90;;;;;;;15.93;94.47;98978.22;5246053;27;19998;-71
2024/04/22 11:16:46;;;;;;;5.80;0.98;;;;;;;15.97;95.51;98968.72;5240730;27;20003;-71
2024/04/22 11:19:12;;;;;;;1.13;0.80;;;;;;;15.92;95.08;98980.06;5191064;27;20026;-72
2024/04/22 11:21:39;;;;;;;1.52;0.90;;;;;;;16.02;94.87;98964.38;5218999;27;20413;-71
2024/04/22 11:24:06;;;;;;;3.70;0.85;;;;;;;15.91;94.22;98966.88;5281226;27;20008;-71
2024/04/22 11:26:33;;;;;;;1.65;1.00;;;;;;;15.57;94.97;98964.44;5253942;27;20421;-71
2024/04/22 11:29:09;;;;;;;2.83;0.90;;;;;;;15.95;95.93;98990.38;5248970;27;20078;-73
2024/04/22 11:31:39;;;;;;;4.07;1.05;;;;;;;16.00;96.96;98968.31;5191528;27;20014;-71
2024/04/22 11:34:07;;;;;;;4.82;1.05;;;;;;;15.98;96.56;98995.31;5152678;27;20003;-71
2024/04/22 11:36:36;;;;;;;2.65;1.02;;;;;;;15.67;95.94;98979.03;5125643;27;19999;-71
2024/04/22 11:39:28;;;;;;;4.97;0.80;;;;;;;15.85;95.19;98965.84;5126465;27;20481;-71
2024/04/22 11:41:56;;;;;;;2.28;0.80;;;;;;;15.89;94.72;98966.25;5099206;27;20364;-72
2024/04/22 11:44:23;;;;;;;2.55;0.90;;;;;;;15.80;91.38;98994.28;5153267;27;20015;-71
2024/04/22 11:46:51;;;;;;;1.63;0.93;;;;;;;15.76;92.81;98977.00;5152461;27;20012;-70
2024/04/22 11:49:42;;;;;;;2.60;0.85;;;;;;;15.69;92.73;98998.41;5125572;27;20023;-72
2024/04/22 11:52:09;;;;;;;3.30;0.82;;;;;;;15.74;94.68;98977.22;5125737;27;20419;-71
2024/04/22 11:54:36;;;;;;;5.57;0.80;;;;;;;15.86;92.72;98999.66;5124505;27;20000;-71
2024/04/22 11:57:05;;;;;;;0.65;0.60;;;;;;;15.66;95.11;98987.28;5125460;27;20010;-71
2024/04/22 11:59:32;;;;;;;6.72;1.15;;;;;;;15.58;96.92;98999.03;5135828;27;20015;-72
2024/04/22 12:01:58;;;;;;;1.75;0.90;;;;;;;15.58;100.00;98982.97;5186177;27;20010;-72
2024/04/22 12:04:24;;;;;;;4.05;1.30;;;;;;;15.54;99.58;98995.13;5223529;27;19997;-70
2024/04/22 12:06:52;;;;;;;5.35;1.00;;;;;;;15.48;100.00;99003.97;5250764;27;20009;-71
2024/04/22 12:09:47;;;;;;;3.70;1.33;;;;;;;15.48;100.00;99006.66;5310233;27;20016;-71
2024/04/22 12:12:21;;;;;;;4.93;1.00;;;;;;;15.43;100.00;98998.41;5253420;27;20002;-72
2024/04/22 12:14:48;;;;;;;1.27;0.65;;;;;;;15.46;100.00;99008.69;5250671;27;20322;-71
2024/04/22 12:17:23;;;;;;;2.15;1.00;;;;;;;15.31;100.00;99001.84;5341313;26;20059;-71
2024/04/22 12:19:51;;;;;;;4.82;0.85;;;;;;;15.25;100.00;99023.03;5256287;26;19997;-72
2024/04/22 12:22:34;;;;;;;4.50;0.90;;;;;;;15.22;100.00;99003.91;5219138;27;20002;-73
2024/04/22 12:25:18;;;;;;;1.80;0.75;;;;;;;15.02;100.00;99029.78;5247606;27;20010;-70
2024/04/22 12:27:55;;;;;;;3.80;0.90;;;;;;;14.92;100.00;99005.25;5310304;27;20001;-75
2024/04/22 12:30:21;;;;;;;0.80;0.80;;;;;;;15.04;100.00;99019.66;5226204;27;20471;-73
2024/04/22 12:32:50;;;;;;;5.00;0.90;;;;;;;15.10;100.00;99005.50;5184585;27;20013;-70
2024/04/22 12:35:21;;;;;;;2.35;0.70;;;;;;;15.08;100.00;99026.28;5193411;27;19998;-70
2024/04/22 12:37:57;;;;;;;1.90;0.80;;;;;;;15.17;100.00;99009.84;5192618;27;20018;-71
2024/04/22 12:40:54;;;;;;;2.45;0.88;;;;;;;15.38;100.00;99022.25;5219600;27;20038;-72
2024/04/22 12:43:43;;;;;;;2.13;0.60;;;;;;;15.32;100.00;99047.13;5247511;27;20002;-74
2024/04/22 12:46:16;;;;;;;2.45;1.25;;;;;;;15.03;100.00;99005.50;5248082;27;20014;-71
2024/04/22 12:51:27;;;;;;;2.33;0.73;;;;;;;15.18;100.00;99016.84;5223849;27;20062;-73
2024/04/22 12:53:58;;;;;;;2.00;0.90;;;;;;;15.06;100.00;99026.50;5243502;27;20010;-71
2024/04/22 12:56:28;;;;;;;5.50;1.10;;;;;;;14.95;100.00;99045.78;5192348;27;20006;-70
2024/04/22 12:58:57;;;;;;;3.63;0.90;;;;;;;14.83;100.00;99026.00;5192873;27;20048;-70
2024/04/22 13:01:23;;;;;;;3.67;0.93;;;;;;;14.73;100.00;99035.41;5166646;27;20032;-71